Terminal Aerodrome Forecast
Issued by NWS

Home | Current Version | Previous Version | Graphics & Text | Print | Product List | Glossary On
Versions: 1 2 3 4 5 6 7 8 9 10 11 12 13
690
FTUS43 KABR 211729
TAFPIR
TAF
KPIR 211729Z 2118/2218 32016G24KT P6SM FEW250
     FM212200 32010KT P6SM FEW250
     FM212300 33006KT P6SM SKC
     FM220100 00000KT P6SM SKC
     FM221000 13006KT P6SM FEW200
     FM221500 19008KT P6SM OVC110=

USA.gov is the U.S. government's official web portal to all federal, state and local government web resources and services.